Chadstone Weather > Observations for 27/03/21

Select Day:



Observations
Time Temp Hum DP Wind Gust Dir Rain >9am Press
C % C kph kph mm hPa
00:00 16.8 77 12.8 3.2 8.6 NNE 0.0 998.8
00:10 16.8 76 12.6 3.2 7.2 NNE 0.0 998.7
00:20 16.9 76 12.7 3.0 7.2 N 0.0 998.7
00:30 16.9 76 12.7 3.4 7.2 NNE 0.0 998.6
00:40 16.9 76 12.7 3.6 9.7 NNE 0.0 998.4
00:50 16.9 75 12.4 2.7 8.6 NNE 0.0 998.4
01:00 17.0 73 12.1 5.1 11.2 NNE 0.0 998.3
01:10 17.2 72 12.1 4.5 11.2 NNW 0.0 998.1
01:20 17.3 71 12.0 5.1 12.2 N 0.0 998.1
01:30 17.4 69 11.7 5.0 11.2 NNW 0.0 997.9
01:40 17.4 68 11.4 4.7 11.2 N 0.0 998.0
01:50 17.4 68 11.4 4.6 12.2 N 0.0 998.0
02:00 17.4 68 11.4 6.2 12.2 N 0.0 998.1
02:10 17.3 67 11.1 3.8 11.2 NNW 0.0 998.0
02:20 17.3 68 11.3 4.1 9.7 NW 0.0 998.1
02:30 17.2 68 11.3 3.4 9.7 NNW 0.0 998.1
02:40 17.2 68 11.3 3.8 7.2 NW 0.0 997.9
02:50 17.2 68 11.3 3.8 8.6 NW 0.0 997.9
03:00 17.2 68 11.3 3.7 9.7 NNW 0.0 997.8
03:10 17.2 68 11.3 4.5 9.7 NW 0.0 997.8
03:20 17.2 68 11.3 5.1 11.2 NW 0.0 997.7
03:30 17.1 68 11.2 5.4 9.7 N 0.0 997.6
03:40 17.1 68 11.2 4.4 9.7 NW 0.0 997.6
03:50 17.1 69 11.4 4.7 12.2 NNW 0.0 997.5
04:00 17.1 69 11.4 4.8 12.2 NNW 0.0 997.4
04:10 17.1 68 11.2 6.1 15.8 N 0.0 997.4
04:20 17.1 68 11.2 5.6 11.2 NW 0.0 997.5
04:30 17.1 68 11.2 5.4 14.8 NNW 0.0 997.4
04:40 17.1 68 11.2 6.6 14.8 N 0.0 997.4
04:50 17.1 68 11.2 4.8 13.3 N 0.0 997.5
05:00 17.2 68 11.3 4.8 13.3 NNW 0.0 997.5
05:10 17.2 67 11.0 4.7 9.7 NNW 0.0 997.5
05:20 17.1 68 11.2 3.4 7.2 NW 0.0 997.5
05:30 17.1 68 11.2 3.9 12.2 NW 0.0 997.5
05:40 17.1 67 10.9 3.5 11.2 N 0.0 997.5
05:50 17.0 67 10.8 3.1 9.7 NNW 0.0 997.4
06:00 17.0 67 10.8 4.6 12.2 NNW 0.0 997.5
06:10 17.1 66 10.7 5.7 11.2 NW 0.0 997.4
06:20 17.1 66 10.7 4.4 12.2 NW 0.0 997.5
06:30 17.1 66 10.7 5.1 12.2 NNW 0.0 997.6
06:40 17.1 65 10.5 2.8 12.2 NW 0.0 997.7
06:50 17.1 66 10.7 4.2 12.2 NNW 0.0 997.7
07:00 17.0 68 11.1 4.9 12.2 NW 0.0 998.2
07:10 16.7 72 11.6 3.4 9.7 WNW 0.0 998.5
07:20 16.6 74 12.0 1.5 8.6 WSW 0.3 998.8
07:30 16.4 76 12.2 0.9 7.2 WSW 0.9 999.1
07:40 16.1 79 12.5 2.3 8.6 W 1.2 999.2
07:50 15.8 83 12.9 0.8 5.0 NNW 2.4 999.3
08:00 15.7 84 13.0 0.0 2.5 N 3.0 999.5
08:10 15.6 86 13.3 0.0 0.0 N 3.0 999.4
08:20 15.4 87 13.3 0.1 2.5 N 3.3 999.4
08:30 15.3 88 13.3 0.2 5.0 N 3.3 999.4
08:40 15.2 89 13.4 0.0 1.1 NNE 3.6 999.6
08:50 15.2 90 13.6 0.0 1.1 NW 3.9 999.7
09:00 15.3 91 13.8 0.1 3.6 N 4.2 999.5
09:10 15.2 92 13.9 0.2 6.1 NNW 4.2 999.6
09:20 15.3 93 14.2 0.5 5.0 NNW 4.2 999.8
09:30 15.3 93 14.2 0.8 5.0 NW 4.2 999.8
09:40 15.4 93 14.3 0.0 3.6 N 4.2 999.8
09:50 15.4 94 14.4 0.6 5.0 NW 4.2 999.8
10:00 15.6 94 14.6 0.0 3.6 NW 0.0 999.9
10:10 15.6 94 14.6 0.3 3.6 N 0.0 999.9
10:20 15.7 94 14.7 0.0 1.1 NW 0.3 999.9
10:30 15.8 95 15.0 0.1 2.5 WNW 0.3 999.9
10:40 15.8 95 15.0 0.6 7.2 NW 0.3 1000.1
10:50 16.1 94 15.1 0.5 6.1 NNW 0.3 1000.0
11:00 16.3 94 15.3 1.3 7.2 NW 0.3 1000.1
11:10 16.3 94 15.3 3.4 11.2 WNW 0.3 1000.2
11:20 16.2 94 15.2 2.9 13.3 W 0.3 1000.2
11:30 16.2 93 15.1 5.5 12.2 W 0.3 1000.0
11:40 16.4 93 15.3 2.9 11.2 WNW 0.3 1000.1
11:50 16.4 92 15.1 3.0 11.2 NW 0.3 1000.0
12:00 16.6 91 15.1 2.4 9.7 W 0.3 1000.1
12:10 16.9 90 15.3 2.1 11.2 W 0.3 1000.1
12:20 16.9 88 14.9 5.0 12.2 W 0.3 1000.0
12:30 17.1 85 14.6 4.3 9.7 WNW 0.3 1000.0
12:40 17.6 83 14.7 2.6 11.2 NW 0.3 999.8
12:50 18.0 82 14.9 4.9 13.3 W 0.3 1000.0
13:00 18.4 77 14.3 4.5 12.2 W 0.3 999.9
13:10 18.9 73 14.0 5.4 15.8 W 0.3 999.8
13:20 19.6 70 14.0 3.0 8.6 WSW 0.3 999.8
13:30 20.0 67 13.7 2.6 8.6 SSW 0.3 999.7
13:40 20.3 66 13.8 4.5 13.3 WNW 0.3 999.6
13:50 20.5 65 13.7 5.4 14.8 W 0.3 999.6
14:00 20.3 64 13.3 3.1 14.8 SW 0.3 999.4
14:10 20.4 64 13.4 3.1 12.2 WNW 0.3 999.2
14:20 20.3 63 13.0 2.6 12.2 NNW 0.3 999.1
14:30 20.0 63 12.8 3.4 14.8 W 0.3 999.1
14:40 20.6 60 12.6 2.6 11.2 SW 0.3 998.8
14:50 20.3 60 12.3 3.9 13.3 SW 0.3 998.9
15:00 20.3 59 12.0 2.5 13.3 WSW 0.3 998.7
15:10 20.4 59 12.1 2.5 13.3 S 0.3 998.5
15:20 20.9 59 12.6 5.2 18.4 WNW 0.3 998.5
15:30 20.9 56 11.8 4.0 12.2 S 0.3 998.6
15:40 20.0 61 12.3 2.2 11.2 SSE 0.3 998.9
15:50 19.8 65 13.0 2.0 9.7 WSW 0.3 999.0
16:00 19.8 64 12.8 1.4 8.6 SSW 0.3 999.3
16:10 19.5 62 12.0 2.4 11.2 WNW 0.3 998.8
16:20 19.0 64 12.0 0.6 9.7 SSW 0.3 998.9
16:30 19.2 65 12.5 0.6 11.2 SSW 0.3 998.9
16:40 19.1 65 12.4 2.7 11.2 WSW 0.3 999.0
16:50 19.4 65 12.7 0.8 5.0 SSW 0.3 999.2
17:00 19.3 65 12.6 2.4 8.6 S 0.3 999.4
17:10 19.3 64 12.3 3.7 18.4 S 0.3 999.4
17:20 19.2 64 12.2 0.4 8.6 S 0.3 999.5
17:30 19.2 65 12.5 2.3 9.7 ESE 0.3 999.7
17:40 18.9 66 12.4 1.3 9.7 SSE 0.3 999.8
17:50 18.8 67 12.6 1.8 7.2 SSE 0.3 1000.0
18:00 18.6 67 12.4 0.1 3.6 S 0.3 1000.3
18:10 18.6 63 11.4 0.9 7.2 S 0.3 1000.2
18:20 18.4 63 11.2 0.8 8.6 WSW 0.3 1000.5
18:30 18.2 65 11.5 0.9 9.7 WSW 0.3 1000.6
18:40 18.2 66 11.8 2.5 15.8 SSE 0.3 1000.9
18:50 17.9 68 11.9 0.5 11.2 S 0.3 1001.1
19:00 17.7 71 12.4 0.3 5.0 SSW 0.3 1001.1
19:10 17.6 73 12.7 0.2 6.1 S 0.3 1001.2
19:20 17.4 74 12.7 1.3 11.2 WSW 0.3 1001.4
19:30 17.3 74 12.6 2.2 8.6 SSE 0.3 1001.4
19:40 17.1 74 12.4 1.3 7.2 SW 0.3 1001.6
19:50 16.9 76 12.7 0.0 2.5 SE 0.3 1001.8
20:00 16.7 76 12.5 0.0 0.0 N 0.3 1002.0
20:10 16.4 77 12.4 0.0 0.0 N 0.3 1002.1
20:20 16.1 78 12.3 0.0 0.0 N 0.3 1002.1
20:30 15.8 80 12.4 0.0 0.0 N 0.3 1002.3
20:40 15.7 81 12.5 0.0 0.0 N 0.3 1002.3
20:50 15.5 83 12.6 0.0 0.0 N 0.3 1002.5
21:00 15.3 83 12.4 0.0 0.0 N 0.3 1002.6
21:10 15.1 84 12.4 0.0 0.0 N 0.3 1002.8
21:20 15.1 84 12.4 0.0 0.0 N 0.3 1002.8
21:30 15.1 85 12.6 0.0 0.0 N 0.3 1003.1
21:40 15.1 86 12.8 0.0 0.0 N 0.3 1003.1
21:50 15.1 86 12.8 0.0 0.0 N 0.3 1003.2
22:00 15.1 87 13.0 0.0 2.5 W 0.3 1003.3
22:10 15.2 87 13.1 0.0 0.0 N 0.3 1003.4
22:20 15.3 87 13.2 0.0 3.6 W 0.3 1003.6
22:30 15.4 87 13.3 0.3 5.0 W 0.3 1003.7
22:40 15.6 87 13.5 0.0 0.0 N 0.3 1003.7
22:50 15.6 86 13.3 0.0 0.0 N 0.3 1003.8
23:00 15.7 86 13.4 0.0 0.0 N 0.3 1003.9
23:10 15.7 86 13.4 0.0 0.0 N 0.3 1004.0
23:20 15.8 86 13.5 0.0 0.0 N 0.3 1004.1
23:30 15.7 86 13.4 0.0 0.0 N 0.3 1004.1
23:40 15.7 84 13.0 0.0 1.1 SW 0.3 1004.2
23:50 15.9 81 12.7 0.7 9.7 W 0.3 1004.4